sensor_id;sensor_type;location;lat;lon;timestamp;P1;durP1;ratioP1;P2;durP2;ratioP2
53479;SDS011;56133;51.012;-1.648;2022-10-26T00:00:04;19.75;;;3.63;;
53479;SDS011;56133;51.012;-1.648;2022-10-26T00:02:30;24.63;;;4.50;;
53479;SDS011;56133;51.012;-1.648;2022-10-26T00:04:57;19.38;;;4.15;;
53479;SDS011;56133;51.012;-1.648;2022-10-26T00:07:22;16.02;;;3.40;;
53479;SDS011;56133;51.012;-1.648;2022-10-26T00:09:48;16.48;;;3.63;;
53479;SDS011;56133;51.012;-1.648;2022-10-26T00:12:13;19.30;;;4.13;;
53479;SDS011;56133;51.012;-1.648;2022-10-26T00:14:38;21.65;;;3.80;;
53479;SDS011;56133;51.012;-1.648;2022-10-26T00:17:04;17.75;;;3.80;;
53479;SDS011;56133;51.012;-1.648;2022-10-26T00:19:32;19.73;;;3.78;;
53479;SDS011;56133;51.012;-1.648;2022-10-26T00:21:59;18.60;;;3.67;;
53479;SDS011;56133;51.012;-1.648;2022-10-26T00:24:24;16.45;;;3.22;;
53479;SDS011;56133;51.012;-1.648;2022-10-26T00:26:50;21.95;;;4.15;;
53479;SDS011;56133;51.012;-1.648;2022-10-26T00:29:15;22.70;;;3.97;;
53479;SDS011;56133;51.012;-1.648;2022-10-26T00:31:42;16.27;;;3.10;;
53479;SDS011;56133;51.012;-1.648;2022-10-26T00:34:08;19.00;;;4.00;;
53479;SDS011;56133;51.012;-1.648;2022-10-26T00:36:34;19.40;;;3.85;;
53479;SDS011;56133;51.012;-1.648;2022-10-26T00:39:00;15.60;;;3.50;;
53479;SDS011;56133;51.012;-1.648;2022-10-26T00:41:27;17.42;;;3.90;;
53479;SDS011;56133;51.012;-1.648;2022-10-26T00:43:55;15.88;;;3.65;;
53479;SDS011;56133;51.012;-1.648;2022-10-26T00:46:23;16.40;;;3.83;;
53479;SDS011;56133;51.012;-1.648;2022-10-26T00:48:51;18.70;;;4.38;;
53479;SDS011;56133;51.012;-1.648;2022-10-26T00:51:31;21.38;;;3.67;;
53479;SDS011;56133;51.012;-1.648;2022-10-26T00:54:02;28.25;;;4.75;;
53479;SDS011;56133;51.012;-1.648;2022-10-26T00:56:30;11.70;;;2.90;;
53479;SDS011;56133;51.012;-1.648;2022-10-26T00:58:56;13.52;;;3.35;;
53479;SDS011;56133;51.012;-1.648;2022-10-26T01:01:26;17.23;;;3.75;;
53479;SDS011;56133;51.012;-1.648;2022-10-26T01:03:53;13.30;;;3.35;;
53479;SDS011;56133;51.012;-1.648;2022-10-26T01:06:19;13.15;;;3.25;;
53479;SDS011;56133;51.012;-1.648;2022-10-26T01:08:45;16.20;;;3.42;;
53479;SDS011;56133;51.012;-1.648;2022-10-26T01:11:12;16.20;;;3.13;;
53479;SDS011;56133;51.012;-1.648;2022-10-26T01:13:38;10.30;;;2.95;;
53479;SDS011;56133;51.012;-1.648;2022-10-26T01:19:07;12.65;;;3.17;;
53479;SDS011;56133;51.012;-1.648;2022-10-26T01:40:58;14.52;;;3.00;;
53479;SDS011;56133;51.012;-1.648;2022-10-26T01:43:27;13.20;;;2.97;;
53479;SDS011;56133;51.012;-1.648;2022-10-26T01:45:57;16.02;;;3.17;;
53479;SDS011;56133;51.012;-1.648;2022-10-26T01:48:24;14.93;;;2.90;;
53479;SDS011;56133;51.012;-1.648;2022-10-26T01:50:52;13.68;;;3.58;;
53479;SDS011;56133;51.012;-1.648;2022-10-26T01:53:19;13.27;;;3.30;;
53479;SDS011;56133;51.012;-1.648;2022-10-26T01:55:51;12.85;;;3.25;;
53479;SDS011;56133;51.012;-1.648;2022-10-26T02:12:37;22.52;;;4.28;;
53479;SDS011;56133;51.012;-1.648;2022-10-26T02:15:55;17.45;;;3.90;;
53479;SDS011;56133;51.012;-1.648;2022-10-26T02:18:07;18.05;;;3.85;;
53479;SDS011;56133;51.012;-1.648;2022-10-26T02:21:00;19.77;;;4.45;;
53479;SDS011;56133;51.012;-1.648;2022-10-26T02:23:29;18.00;;;5.03;;
53479;SDS011;56133;51.012;-1.648;2022-10-26T02:25:59;21.33;;;5.15;;
53479;SDS011;56133;51.012;-1.648;2022-10-26T02:28:32;21.00;;;5.05;;
53479;SDS011;56133;51.012;-1.648;2022-10-26T02:31:05;23.70;;;5.43;;
53479;SDS011;56133;51.012;-1.648;2022-10-26T02:33:34;23.65;;;5.50;;
53479;SDS011;56133;51.012;-1.648;2022-10-26T02:36:04;18.90;;;5.30;;
53479;SDS011;56133;51.012;-1.648;2022-10-26T02:38:33;27.63;;;6.03;;
53479;SDS011;56133;51.012;-1.648;2022-10-26T02:41:01;21.73;;;5.65;;
53479;SDS011;56133;51.012;-1.648;2022-10-26T02:43:29;26.27;;;5.60;;
53479;SDS011;56133;51.012;-1.648;2022-10-26T02:46:04;23.43;;;5.50;;
53479;SDS011;56133;51.012;-1.648;2022-10-26T02:48:33;23.45;;;5.22;;
53479;SDS011;56133;51.012;-1.648;2022-10-26T02:51:01;22.67;;;5.15;;
53479;SDS011;56133;51.012;-1.648;2022-10-26T02:56:25;20.65;;;4.22;;
53479;SDS011;56133;51.012;-1.648;2022-10-26T02:58:58;23.20;;;4.70;;
53479;SDS011;56133;51.012;-1.648;2022-10-26T03:01:26;15.60;;;3.90;;
53479;SDS011;56133;51.012;-1.648;2022-10-26T03:03:55;20.83;;;4.40;;
53479;SDS011;56133;51.012;-1.648;2022-10-26T03:06:22;20.00;;;4.63;;
53479;SDS011;56133;51.012;-1.648;2022-10-26T03:08:48;21.92;;;4.82;;
53479;SDS011;56133;51.012;-1.648;2022-10-26T03:11:14;17.90;;;4.20;;
53479;SDS011;56133;51.012;-1.648;2022-10-26T03:13:40;19.05;;;4.30;;
53479;SDS011;56133;51.012;-1.648;2022-10-26T03:16:05;23.70;;;3.70;;
53479;SDS011;56133;51.012;-1.648;2022-10-26T03:18:31;19.02;;;3.38;;
53479;SDS011;56133;51.012;-1.648;2022-10-26T03:20:56;17.65;;;3.40;;
53479;SDS011;56133;51.012;-1.648;2022-10-26T03:23:22;20.30;;;3.22;;
53479;SDS011;56133;51.012;-1.648;2022-10-26T03:25:48;14.05;;;2.80;;
53479;SDS011;56133;51.012;-1.648;2022-10-26T03:28:13;16.17;;;3.03;;
53479;SDS011;56133;51.012;-1.648;2022-10-26T03:30:39;16.25;;;2.60;;
53479;SDS011;56133;51.012;-1.648;2022-10-26T03:33:04;16.13;;;2.83;;
53479;SDS011;56133;51.012;-1.648;2022-10-26T03:35:30;16.88;;;3.00;;
53479;SDS011;56133;51.012;-1.648;2022-10-26T03:37:55;23.02;;;2.92;;
53479;SDS011;56133;51.012;-1.648;2022-10-26T03:40:21;17.42;;;2.92;;
53479;SDS011;56133;51.012;-1.648;2022-10-26T03:42:47;17.80;;;2.92;;
53479;SDS011;56133;51.012;-1.648;2022-10-26T03:45:12;16.38;;;3.15;;
53479;SDS011;56133;51.012;-1.648;2022-10-26T03:47:44;13.82;;;2.67;;
53479;SDS011;56133;51.012;-1.648;2022-10-26T03:50:11;15.35;;;2.92;;
53479;SDS011;56133;51.012;-1.648;2022-10-26T03:52:38;14.70;;;3.10;;
53479;SDS011;56133;51.012;-1.648;2022-10-26T03:55:04;17.63;;;3.15;;
53479;SDS011;56133;51.012;-1.648;2022-10-26T03:57:30;21.77;;;2.90;;
53479;SDS011;56133;51.012;-1.648;2022-10-26T03:59:55;19.27;;;3.00;;
53479;SDS011;56133;51.012;-1.648;2022-10-26T04:02:21;15.27;;;2.65;;
53479;SDS011;56133;51.012;-1.648;2022-10-26T04:04:46;17.90;;;2.85;;
53479;SDS011;56133;51.012;-1.648;2022-10-26T04:07:12;21.10;;;2.72;;
53479;SDS011;56133;51.012;-1.648;2022-10-26T04:09:37;16.10;;;2.45;;
53479;SDS011;56133;51.012;-1.648;2022-10-26T04:12:02;17.73;;;2.80;;
53479;SDS011;56133;51.012;-1.648;2022-10-26T04:14:28;21.20;;;2.88;;
53479;SDS011;56133;51.012;-1.648;2022-10-26T04:16:54;15.90;;;2.60;;
53479;SDS011;56133;51.012;-1.648;2022-10-26T04:19:19;16.63;;;3.00;;
53479;SDS011;56133;51.012;-1.648;2022-10-26T04:21:44;24.20;;;3.42;;
53479;SDS011;56133;51.012;-1.648;2022-10-26T04:24:10;17.05;;;3.08;;
53479;SDS011;56133;51.012;-1.648;2022-10-26T04:26:36;13.27;;;2.72;;
53479;SDS011;56133;51.012;-1.648;2022-10-26T04:29:01;18.10;;;2.78;;
53479;SDS011;56133;51.012;-1.648;2022-10-26T04:31:30;17.48;;;2.78;;
53479;SDS011;56133;51.012;-1.648;2022-10-26T04:33:56;20.40;;;3.00;;
53479;SDS011;56133;51.012;-1.648;2022-10-26T04:36:22;21.98;;;3.17;;
53479;SDS011;56133;51.012;-1.648;2022-10-26T04:38:48;17.42;;;2.58;;
53479;SDS011;56133;51.012;-1.648;2022-10-26T04:41:13;12.82;;;2.60;;
53479;SDS011;56133;51.012;-1.648;2022-10-26T04:43:39;16.00;;;2.47;;
53479;SDS011;56133;51.012;-1.648;2022-10-26T04:46:04;22.58;;;2.90;;
53479;SDS011;56133;51.012;-1.648;2022-10-26T04:48:30;17.67;;;2.67;;
53479;SDS011;56133;51.012;-1.648;2022-10-26T04:50:59;21.42;;;3.65;;
53479;SDS011;56133;51.012;-1.648;2022-10-26T04:53:25;19.75;;;3.03;;
53479;SDS011;56133;51.012;-1.648;2022-10-26T04:55:57;19.25;;;2.90;;
53479;SDS011;56133;51.012;-1.648;2022-10-26T04:58:24;20.40;;;3.20;;
53479;SDS011;56133;51.012;-1.648;2022-10-26T05:00:49;16.67;;;2.92;;
53479;SDS011;56133;51.012;-1.648;2022-10-26T05:03:15;16.67;;;2.75;;
53479;SDS011;56133;51.012;-1.648;2022-10-26T05:05:41;20.73;;;3.20;;
53479;SDS011;56133;51.012;-1.648;2022-10-26T05:08:06;27.80;;;3.50;;
53479;SDS011;56133;51.012;-1.648;2022-10-26T05:10:32;22.67;;;3.15;;
53479;SDS011;56133;51.012;-1.648;2022-10-26T05:12:58;25.95;;;3.33;;
53479;SDS011;56133;51.012;-1.648;2022-10-26T05:15:25;21.40;;;2.92;;
53479;SDS011;56133;51.012;-1.648;2022-10-26T05:17:55;21.60;;;3.00;;
53479;SDS011;56133;51.012;-1.648;2022-10-26T05:20:22;19.90;;;3.25;;
53479;SDS011;56133;51.012;-1.648;2022-10-26T05:22:53;22.25;;;3.15;;
53479;SDS011;56133;51.012;-1.648;2022-10-26T05:25:21;17.38;;;3.00;;
53479;SDS011;56133;51.012;-1.648;2022-10-26T05:27:46;19.33;;;3.33;;
53479;SDS011;56133;51.012;-1.648;2022-10-26T05:30:12;18.95;;;3.08;;
53479;SDS011;56133;51.012;-1.648;2022-10-26T05:32:38;26.38;;;3.92;;
53479;SDS011;56133;51.012;-1.648;2022-10-26T05:35:03;24.85;;;3.97;;
53479;SDS011;56133;51.012;-1.648;2022-10-26T05:37:29;16.23;;;3.38;;
53479;SDS011;56133;51.012;-1.648;2022-10-26T05:39:54;18.70;;;3.03;;
53479;SDS011;56133;51.012;-1.648;2022-10-26T05:42:20;27.20;;;3.78;;
53479;SDS011;56133;51.012;-1.648;2022-10-26T05:44:45;18.90;;;3.20;;
53479;SDS011;56133;51.012;-1.648;2022-10-26T05:47:11;22.42;;;3.65;;
53479;SDS011;56133;51.012;-1.648;2022-10-26T05:49:37;23.88;;;3.80;;
53479;SDS011;56133;51.012;-1.648;2022-10-26T05:52:02;31.27;;;4.10;;
53479;SDS011;56133;51.012;-1.648;2022-10-26T05:54:28;24.88;;;3.90;;
53479;SDS011;56133;51.012;-1.648;2022-10-26T05:56:54;24.00;;;3.78;;
53479;SDS011;56133;51.012;-1.648;2022-10-26T05:59:20;26.08;;;4.35;;
53479;SDS011;56133;51.012;-1.648;2022-10-26T06:01:55;24.98;;;3.58;;
53479;SDS011;56133;51.012;-1.648;2022-10-26T06:04:47;25.13;;;3.33;;
53479;SDS011;56133;51.012;-1.648;2022-10-26T06:07:17;26.65;;;4.28;;
53479;SDS011;56133;51.012;-1.648;2022-10-26T06:09:46;23.25;;;3.20;;
53479;SDS011;56133;51.012;-1.648;2022-10-26T06:12:13;33.78;;;4.03;;
53479;SDS011;56133;51.012;-1.648;2022-10-26T06:14:39;25.38;;;3.85;;
53479;SDS011;56133;51.012;-1.648;2022-10-26T06:25:39;24.85;;;3.25;;
53479;SDS011;56133;51.012;-1.648;2022-10-26T06:28:21;27.02;;;3.63;;
53479;SDS011;56133;51.012;-1.648;2022-10-26T06:31:01;28.67;;;4.03;;
53479;SDS011;56133;51.012;-1.648;2022-10-26T06:33:26;24.60;;;3.47;;
53479;SDS011;56133;51.012;-1.648;2022-10-26T06:35:56;28.50;;;3.17;;
53479;SDS011;56133;51.012;-1.648;2022-10-26T06:40:56;28.98;;;3.83;;
53479;SDS011;56133;51.012;-1.648;2022-10-26T06:43:25;23.88;;;3.60;;
53479;SDS011;56133;51.012;-1.648;2022-10-26T06:48:50;32.28;;;3.95;;
53479;SDS011;56133;51.012;-1.648;2022-10-26T06:51:20;24.23;;;4.10;;
53479;SDS011;56133;51.012;-1.648;2022-10-26T06:53:51;34.35;;;4.85;;
53479;SDS011;56133;51.012;-1.648;2022-10-26T06:56:20;21.33;;;3.40;;
53479;SDS011;56133;51.012;-1.648;2022-10-26T06:58:48;33.20;;;4.30;;
53479;SDS011;56133;51.012;-1.648;2022-10-26T07:01:16;30.88;;;4.50;;
53479;SDS011;56133;51.012;-1.648;2022-10-26T07:03:42;33.47;;;4.45;;
53479;SDS011;56133;51.012;-1.648;2022-10-26T07:06:08;31.95;;;4.85;;
53479;SDS011;56133;51.012;-1.648;2022-10-26T07:08:34;28.48;;;4.45;;
53479;SDS011;56133;51.012;-1.648;2022-10-26T07:10:59;35.40;;;4.32;;
53479;SDS011;56133;51.012;-1.648;2022-10-26T07:13:25;26.02;;;4.07;;
53479;SDS011;56133;51.012;-1.648;2022-10-26T07:15:50;35.35;;;4.80;;
53479;SDS011;56133;51.012;-1.648;2022-10-26T07:18:16;31.73;;;4.28;;
53479;SDS011;56133;51.012;-1.648;2022-10-26T07:20:41;24.58;;;4.30;;
53479;SDS011;56133;51.012;-1.648;2022-10-26T07:23:08;24.90;;;3.63;;
53479;SDS011;56133;51.012;-1.648;2022-10-26T07:25:37;30.23;;;4.15;;
53479;SDS011;56133;51.012;-1.648;2022-10-26T07:28:05;25.75;;;3.60;;
53479;SDS011;56133;51.012;-1.648;2022-10-26T07:30:34;20.17;;;3.50;;
53479;SDS011;56133;51.012;-1.648;2022-10-26T07:33:10;21.70;;;3.30;;
53479;SDS011;56133;51.012;-1.648;2022-10-26T07:35:38;16.58;;;2.35;;
53479;SDS011;56133;51.012;-1.648;2022-10-26T07:38:04;14.95;;;2.10;;
53479;SDS011;56133;51.012;-1.648;2022-10-26T07:40:30;16.05;;;2.10;;
53479;SDS011;56133;51.012;-1.648;2022-10-26T07:42:57;16.05;;;2.28;;
53479;SDS011;56133;51.012;-1.648;2022-10-26T07:45:23;17.08;;;2.03;;
53479;SDS011;56133;51.012;-1.648;2022-10-26T07:47:50;16.63;;;2.28;;
53479;SDS011;56133;51.012;-1.648;2022-10-26T07:50:15;18.75;;;2.53;;
53479;SDS011;56133;51.012;-1.648;2022-10-26T07:52:41;13.68;;;1.80;;
53479;SDS011;56133;51.012;-1.648;2022-10-26T07:55:08;19.45;;;2.85;;
53479;SDS011;56133;51.012;-1.648;2022-10-26T07:57:34;14.45;;;2.30;;
53479;SDS011;56133;51.012;-1.648;2022-10-26T08:00:00;18.02;;;2.45;;
53479;SDS011;56133;51.012;-1.648;2022-10-26T08:02:26;13.05;;;2.08;;
53479;SDS011;56133;51.012;-1.648;2022-10-26T08:04:51;14.05;;;2.40;;
53479;SDS011;56133;51.012;-1.648;2022-10-26T08:07:17;12.68;;;2.13;;
53479;SDS011;56133;51.012;-1.648;2022-10-26T08:09:42;13.73;;;2.20;;
53479;SDS011;56133;51.012;-1.648;2022-10-26T08:12:08;16.27;;;2.30;;
53479;SDS011;56133;51.012;-1.648;2022-10-26T08:14:33;14.00;;;2.10;;
53479;SDS011;56133;51.012;-1.648;2022-10-26T08:16:59;17.05;;;2.55;;
53479;SDS011;56133;51.012;-1.648;2022-10-26T08:19:24;17.40;;;2.03;;
53479;SDS011;56133;51.012;-1.648;2022-10-26T08:21:50;16.98;;;2.83;;
53479;SDS011;56133;51.012;-1.648;2022-10-26T08:24:15;16.73;;;2.67;;
53479;SDS011;56133;51.012;-1.648;2022-10-26T08:26:41;16.42;;;3.10;;
53479;SDS011;56133;51.012;-1.648;2022-10-26T08:29:07;17.85;;;2.95;;
53479;SDS011;56133;51.012;-1.648;2022-10-26T08:31:32;18.30;;;2.60;;
53479;SDS011;56133;51.012;-1.648;2022-10-26T08:33:58;18.02;;;2.90;;
53479;SDS011;56133;51.012;-1.648;2022-10-26T08:36:24;18.42;;;3.03;;
53479;SDS011;56133;51.012;-1.648;2022-10-26T08:38:51;17.70;;;3.10;;
53479;SDS011;56133;51.012;-1.648;2022-10-26T08:41:17;18.00;;;3.17;;
53479;SDS011;56133;51.012;-1.648;2022-10-26T08:43:55;14.82;;;3.65;;
53479;SDS011;56133;51.012;-1.648;2022-10-26T08:46:26;18.27;;;3.25;;
53479;SDS011;56133;51.012;-1.648;2022-10-26T08:49:07;18.42;;;2.80;;
53479;SDS011;56133;51.012;-1.648;2022-10-26T08:51:43;17.17;;;2.88;;
53479;SDS011;56133;51.012;-1.648;2022-10-26T08:57:27;21.25;;;2.90;;
53479;SDS011;56133;51.012;-1.648;2022-10-26T09:02:30;17.33;;;3.10;;
53479;SDS011;56133;51.012;-1.648;2022-10-26T09:04:56;18.05;;;3.25;;
53479;SDS011;56133;51.012;-1.648;2022-10-26T09:15:36;28.90;;;4.50;;
53479;SDS011;56133;51.012;-1.648;2022-10-26T09:25:48;26.55;;;4.15;;
53479;SDS011;56133;51.012;-1.648;2022-10-26T09:28:21;26.88;;;4.40;;
53479;SDS011;56133;51.012;-1.648;2022-10-26T09:30:47;34.63;;;4.43;;
53479;SDS011;56133;51.012;-1.648;2022-10-26T09:33:14;29.92;;;4.43;;
53479;SDS011;56133;51.012;-1.648;2022-10-26T09:38:30;27.60;;;4.75;;
53479;SDS011;56133;51.012;-1.648;2022-10-26T09:46:02;28.55;;;4.18;;
53479;SDS011;56133;51.012;-1.648;2022-10-26T09:48:35;32.15;;;4.53;;
53479;SDS011;56133;51.012;-1.648;2022-10-26T09:51:07;28.45;;;4.40;;
53479;SDS011;56133;51.012;-1.648;2022-10-26T09:53:33;25.80;;;4.50;;
53479;SDS011;56133;51.012;-1.648;2022-10-26T09:56:00;32.70;;;4.70;;
53479;SDS011;56133;51.012;-1.648;2022-10-26T09:58:30;35.13;;;4.85;;
53479;SDS011;56133;51.012;-1.648;2022-10-26T10:01:00;36.33;;;4.63;;
53479;SDS011;56133;51.012;-1.648;2022-10-26T10:03:27;30.88;;;4.50;;
53479;SDS011;56133;51.012;-1.648;2022-10-26T10:06:28;36.15;;;4.88;;
53479;SDS011;56133;51.012;-1.648;2022-10-26T10:11:45;33.08;;;5.03;;
53479;SDS011;56133;51.012;-1.648;2022-10-26T10:16:50;25.98;;;4.70;;
53479;SDS011;56133;51.012;-1.648;2022-10-26T10:19:37;32.05;;;4.85;;
53479;SDS011;56133;51.012;-1.648;2022-10-26T10:27:20;30.98;;;5.40;;
53479;SDS011;56133;51.012;-1.648;2022-10-26T10:29:54;31.50;;;4.85;;
53479;SDS011;56133;51.012;-1.648;2022-10-26T10:34:54;29.25;;;5.07;;
53479;SDS011;56133;51.012;-1.648;2022-10-26T10:39:58;30.77;;;4.65;;
53479;SDS011;56133;51.012;-1.648;2022-10-26T10:42:31;38.30;;;5.20;;
53479;SDS011;56133;51.012;-1.648;2022-10-26T10:44:59;27.38;;;4.93;;
53479;SDS011;56133;51.012;-1.648;2022-10-26T10:52:33;27.27;;;4.90;;
53479;SDS011;56133;51.012;-1.648;2022-10-26T10:55:08;29.55;;;4.60;;
53479;SDS011;56133;51.012;-1.648;2022-10-26T11:00:22;28.13;;;4.30;;
53479;SDS011;56133;51.012;-1.648;2022-10-26T11:02:52;27.05;;;5.80;;
53479;SDS011;56133;51.012;-1.648;2022-10-26T11:05:39;29.02;;;5.28;;
53479;SDS011;56133;51.012;-1.648;2022-10-26T11:11:16;28.00;;;5.13;;
53479;SDS011;56133;51.012;-1.648;2022-10-26T11:13:56;28.40;;;4.72;;
53479;SDS011;56133;51.012;-1.648;2022-10-26T11:16:34;29.80;;;4.20;;
53479;SDS011;56133;51.012;-1.648;2022-10-26T11:21:39;29.98;;;4.45;;
53479;SDS011;56133;51.012;-1.648;2022-10-26T11:24:12;28.88;;;4.50;;
53479;SDS011;56133;51.012;-1.648;2022-10-26T11:32:19;28.95;;;4.47;;
53479;SDS011;56133;51.012;-1.648;2022-10-26T11:34:54;28.27;;;4.07;;
53479;SDS011;56133;51.012;-1.648;2022-10-26T11:37:29;26.80;;;3.67;;
53479;SDS011;56133;51.012;-1.648;2022-10-26T11:45:41;22.88;;;3.95;;
53479;SDS011;56133;51.012;-1.648;2022-10-26T11:48:13;26.70;;;4.53;;
53479;SDS011;56133;51.012;-1.648;2022-10-26T11:50:53;22.23;;;3.97;;
53479;SDS011;56133;51.012;-1.648;2022-10-26T11:55:21;23.58;;;3.50;;
53479;SDS011;56133;51.012;-1.648;2022-10-26T11:57:48;23.73;;;4.55;;
53479;SDS011;56133;51.012;-1.648;2022-10-26T12:00:17;24.52;;;3.58;;
53479;SDS011;56133;51.012;-1.648;2022-10-26T12:02:54;24.92;;;3.95;;
53479;SDS011;56133;51.012;-1.648;2022-10-26T12:05:42;21.08;;;3.08;;
53479;SDS011;56133;51.012;-1.648;2022-10-26T12:08:17;26.85;;;4.35;;
53479;SDS011;56133;51.012;-1.648;2022-10-26T12:11:16;26.80;;;4.30;;
53479;SDS011;56133;51.012;-1.648;2022-10-26T12:13:56;29.10;;;4.32;;
53479;SDS011;56133;51.012;-1.648;2022-10-26T12:19:04;27.38;;;3.80;;
53479;SDS011;56133;51.012;-1.648;2022-10-26T12:21:37;24.02;;;4.32;;
53479;SDS011;56133;51.012;-1.648;2022-10-26T12:27:01;29.13;;;4.28;;
53479;SDS011;56133;51.012;-1.648;2022-10-26T12:29:38;26.75;;;4.10;;
53479;SDS011;56133;51.012;-1.648;2022-10-26T12:34:57;29.20;;;4.28;;
53479;SDS011;56133;51.012;-1.648;2022-10-26T12:45:38;24.67;;;3.78;;
53479;SDS011;56133;51.012;-1.648;2022-10-26T12:48:09;28.13;;;4.40;;
53479;SDS011;56133;51.012;-1.648;2022-10-26T12:50:46;23.65;;;4.03;;
53479;SDS011;56133;51.012;-1.648;2022-10-26T12:53:12;26.10;;;4.07;;
53479;SDS011;56133;51.012;-1.648;2022-10-26T12:58:22;32.42;;;4.55;;
53479;SDS011;56133;51.012;-1.648;2022-10-26T13:03:31;30.92;;;4.50;;
53479;SDS011;56133;51.012;-1.648;2022-10-26T13:06:13;27.30;;;4.30;;
53479;SDS011;56133;51.012;-1.648;2022-10-26T13:08:54;25.90;;;4.47;;
53479;SDS011;56133;51.012;-1.648;2022-10-26T13:14:02;23.92;;;3.92;;
53479;SDS011;56133;51.012;-1.648;2022-10-26T13:16:30;23.20;;;3.85;;
53479;SDS011;56133;51.012;-1.648;2022-10-26T13:18:56;23.83;;;3.80;;
53479;SDS011;56133;51.012;-1.648;2022-10-26T13:21:23;26.27;;;4.05;;
53479;SDS011;56133;51.012;-1.648;2022-10-26T13:26:22;27.77;;;4.15;;
53479;SDS011;56133;51.012;-1.648;2022-10-26T13:28:54;23.48;;;3.95;;
53479;SDS011;56133;51.012;-1.648;2022-10-26T13:33:53;19.60;;;3.47;;
53479;SDS011;56133;51.012;-1.648;2022-10-26T13:36:48;25.90;;;3.05;;
53479;SDS011;56133;51.012;-1.648;2022-10-26T13:39:13;22.20;;;3.88;;
53479;SDS011;56133;51.012;-1.648;2022-10-26T13:41:50;24.83;;;3.53;;
53479;SDS011;56133;51.012;-1.648;2022-10-26T13:47:00;23.17;;;3.85;;
53479;SDS011;56133;51.012;-1.648;2022-10-26T13:49:38;29.23;;;4.10;;
53479;SDS011;56133;51.012;-1.648;2022-10-26T13:52:12;21.42;;;3.70;;
53479;SDS011;56133;51.012;-1.648;2022-10-26T13:57:14;26.05;;;3.75;;
53479;SDS011;56133;51.012;-1.648;2022-10-26T13:59:42;25.42;;;3.75;;
53479;SDS011;56133;51.012;-1.648;2022-10-26T14:02:17;24.77;;;4.03;;
53479;SDS011;56133;51.012;-1.648;2022-10-26T14:05:01;27.33;;;4.00;;
53479;SDS011;56133;51.012;-1.648;2022-10-26T14:07:32;29.58;;;4.43;;
53479;SDS011;56133;51.012;-1.648;2022-10-26T14:10:20;25.10;;;4.13;;
53479;SDS011;56133;51.012;-1.648;2022-10-26T14:13:12;28.60;;;4.75;;
53479;SDS011;56133;51.012;-1.648;2022-10-26T14:15:43;27.52;;;4.45;;
53479;SDS011;56133;51.012;-1.648;2022-10-26T14:18:13;26.30;;;4.55;;
53479;SDS011;56133;51.012;-1.648;2022-10-26T14:20:46;23.48;;;4.47;;
53479;SDS011;56133;51.012;-1.648;2022-10-26T14:26:02;24.45;;;4.00;;
53479;SDS011;56133;51.012;-1.648;2022-10-26T14:28:30;43.45;;;5.97;;
53479;SDS011;56133;51.012;-1.648;2022-10-26T14:31:10;23.05;;;4.00;;
53479;SDS011;56133;51.012;-1.648;2022-10-26T14:33:45;20.88;;;3.33;;
53479;SDS011;56133;51.012;-1.648;2022-10-26T14:36:10;24.33;;;3.97;;
53479;SDS011;56133;51.012;-1.648;2022-10-26T14:38:40;20.65;;;4.05;;
53479;SDS011;56133;51.012;-1.648;2022-10-26T14:43:39;27.17;;;3.95;;
53479;SDS011;56133;51.012;-1.648;2022-10-26T14:46:05;21.13;;;3.30;;
53479;SDS011;56133;51.012;-1.648;2022-10-26T14:48:40;21.35;;;3.13;;
53479;SDS011;56133;51.012;-1.648;2022-10-26T14:51:19;23.88;;;3.58;;
53479;SDS011;56133;51.012;-1.648;2022-10-26T14:53:50;26.67;;;3.95;;
53479;SDS011;56133;51.012;-1.648;2022-10-26T14:56:24;22.33;;;3.60;;
53479;SDS011;56133;51.012;-1.648;2022-10-26T14:58:53;17.38;;;2.97;;
53479;SDS011;56133;51.012;-1.648;2022-10-26T15:03:53;23.25;;;3.92;;
53479;SDS011;56133;51.012;-1.648;2022-10-26T15:06:29;29.35;;;3.80;;
53479;SDS011;56133;51.012;-1.648;2022-10-26T15:08:57;25.58;;;4.07;;
53479;SDS011;56133;51.012;-1.648;2022-10-26T15:11:26;22.05;;;3.97;;
53479;SDS011;56133;51.012;-1.648;2022-10-26T15:13:53;22.45;;;3.60;;
53479;SDS011;56133;51.012;-1.648;2022-10-26T15:16:26;25.52;;;4.10;;
53479;SDS011;56133;51.012;-1.648;2022-10-26T15:18:55;21.75;;;3.67;;
53479;SDS011;56133;51.012;-1.648;2022-10-26T15:23:55;32.15;;;4.80;;
53479;SDS011;56133;51.012;-1.648;2022-10-26T15:26:22;18.67;;;3.47;;
53479;SDS011;56133;51.012;-1.648;2022-10-26T15:28:47;31.10;;;4.13;;
53479;SDS011;56133;51.012;-1.648;2022-10-26T15:33:40;27.10;;;4.50;;
53479;SDS011;56133;51.012;-1.648;2022-10-26T15:38:38;58.83;;;7.07;;
53479;SDS011;56133;51.012;-1.648;2022-10-26T15:41:47;28.85;;;4.60;;
53479;SDS011;56133;51.012;-1.648;2022-10-26T15:43:54;18.80;;;4.05;;
53479;SDS011;56133;51.012;-1.648;2022-10-26T15:46:21;28.80;;;4.07;;
53479;SDS011;56133;51.012;-1.648;2022-10-26T15:48:57;25.13;;;4.05;;
53479;SDS011;56133;51.012;-1.648;2022-10-26T15:51:24;22.98;;;4.07;;
53479;SDS011;56133;51.012;-1.648;2022-10-26T15:53:50;27.20;;;4.22;;
53479;SDS011;56133;51.012;-1.648;2022-10-26T15:56:16;31.10;;;5.22;;
53479;SDS011;56133;51.012;-1.648;2022-10-26T15:58:44;25.20;;;3.78;;
53479;SDS011;56133;51.012;-1.648;2022-10-26T16:01:18;25.90;;;5.28;;
53479;SDS011;56133;51.012;-1.648;2022-10-26T16:03:44;30.60;;;4.40;;
53479;SDS011;56133;51.012;-1.648;2022-10-26T16:06:12;28.73;;;4.53;;
53479;SDS011;56133;51.012;-1.648;2022-10-26T16:08:41;24.17;;;4.78;;
53479;SDS011;56133;51.012;-1.648;2022-10-26T16:11:13;26.20;;;4.60;;
53479;SDS011;56133;51.012;-1.648;2022-10-26T16:13:38;32.13;;;4.78;;
53479;SDS011;56133;51.012;-1.648;2022-10-26T16:16:04;29.48;;;4.13;;
53479;SDS011;56133;51.012;-1.648;2022-10-26T16:18:35;32.47;;;4.72;;
53479;SDS011;56133;51.012;-1.648;2022-10-26T16:21:00;31.67;;;5.15;;
53479;SDS011;56133;51.012;-1.648;2022-10-26T16:23:26;35.15;;;5.38;;
53479;SDS011;56133;51.012;-1.648;2022-10-26T16:25:52;30.70;;;4.40;;
53479;SDS011;56133;51.012;-1.648;2022-10-26T16:28:17;34.83;;;5.05;;
53479;SDS011;56133;51.012;-1.648;2022-10-26T16:30:43;30.20;;;4.22;;
53479;SDS011;56133;51.012;-1.648;2022-10-26T16:33:09;28.63;;;4.70;;
53479;SDS011;56133;51.012;-1.648;2022-10-26T16:35:34;32.55;;;4.85;;
53479;SDS011;56133;51.012;-1.648;2022-10-26T16:38:00;28.10;;;4.10;;
53479;SDS011;56133;51.012;-1.648;2022-10-26T16:40:25;28.80;;;5.43;;
53479;SDS011;56133;51.012;-1.648;2022-10-26T16:42:51;28.25;;;4.57;;
53479;SDS011;56133;51.012;-1.648;2022-10-26T16:45:16;28.95;;;4.35;;
53479;SDS011;56133;51.012;-1.648;2022-10-26T16:47:42;34.83;;;4.35;;
53479;SDS011;56133;51.012;-1.648;2022-10-26T16:50:08;34.33;;;5.13;;
53479;SDS011;56133;51.012;-1.648;2022-10-26T16:52:36;31.27;;;4.45;;
53479;SDS011;56133;51.012;-1.648;2022-10-26T16:55:03;25.20;;;4.45;;
53479;SDS011;56133;51.012;-1.648;2022-10-26T16:57:30;24.42;;;4.25;;
53479;SDS011;56133;51.012;-1.648;2022-10-26T16:59:56;28.80;;;4.78;;
53479;SDS011;56133;51.012;-1.648;2022-10-26T17:02:22;30.25;;;4.63;;
53479;SDS011;56133;51.012;-1.648;2022-10-26T17:04:48;30.77;;;4.13;;
53479;SDS011;56133;51.012;-1.648;2022-10-26T17:07:14;27.58;;;4.57;;
53479;SDS011;56133;51.012;-1.648;2022-10-26T17:09:39;27.02;;;4.18;;
53479;SDS011;56133;51.012;-1.648;2022-10-26T17:12:05;32.08;;;4.20;;
53479;SDS011;56133;51.012;-1.648;2022-10-26T17:14:31;34.55;;;4.60;;
53479;SDS011;56133;51.012;-1.648;2022-10-26T17:16:57;28.02;;;4.60;;
53479;SDS011;56133;51.012;-1.648;2022-10-26T17:19:22;31.85;;;4.82;;
53479;SDS011;56133;51.012;-1.648;2022-10-26T17:21:48;28.05;;;4.22;;
53479;SDS011;56133;51.012;-1.648;2022-10-26T17:24:14;32.47;;;5.15;;
53479;SDS011;56133;51.012;-1.648;2022-10-26T17:26:40;39.03;;;4.57;;